Terminal Aerodrome Forecast
Issued by NWS

Current Version | Previous Version | Text Only | Print | Product List | Glossary Off
Versions: 1 2 3 4 5 6 7 8 9 10 11 12 13 14 15 16 17 18 19 20 21 22 23 24 25 26 27 28 29 30

000
FTUS41 KILN 221000 AAB
TAFLCK
TAF AMD
KLCK 221020Z 2210/2306 33008KT P6SM BKN025
      TEMPO 2210/2214 BKN015
     FM221400 34008KT P6SM SCT035
      TEMPO 2214/2216 BKN025
     FM221900 33008KT P6SM SKC
     FM230100 VRB03KT P6SM SKC=

USA.gov is the U.S. government's official web portal to all federal, state and local government web resources and services.